• Join FlightAware (Why Join?)
  • Login
  • US Flag 
07:20AM EST


 

Airport Tracker/Info


-or-


 

Live Flight TrackerFlight Track Log ✈ LAN440 ✈ 14-May-2014 ✈ SABE / AEP - SCEL / SCL

Flight Track Log - Related Links

Times and Time Zones

All times are in EDT time to prevent confusion due to time zone crossing. See the LAN440 flight status page for this flight to view local times or setup timezone preferences in your user account.

Time Position Orientation Groundspeed Altitude Reporting Facility
EDT Latitude Longitude Course Direction KTS MPH feet Rate Location/Type
12:04PM -34.5474 -58.5631 284° West  Level FlightAware Approximate
12:05PM -34.5333 -58.6537 270° West  Level FlightAware Approximate
12:06PM -34.5333 -58.7464 270° West  Level FlightAware Approximate
12:07PM -34.5334 -58.8391 270° West  Level FlightAware Approximate
12:08PM -34.5321 -58.9317 276° West  Level FlightAware Approximate
12:09PM -34.5244 -59.0239 276° West  Level FlightAware Approximate
12:10PM -34.5167 -59.1161 276° West  Level FlightAware Approximate
12:11PM -34.5135 -59.2087 272° West  Level FlightAware Approximate
12:12PM -34.5103 -59.3013 272° West  Level FlightAware Approximate
12:13PM -34.5070 -59.3939 272° West  Level FlightAware Approximate
12:14PM -34.5036 -59.4865 273° West  Level FlightAware Approximate
12:15PM -34.5002 -59.5790 273° West  Level FlightAware Approximate
12:16PM -34.4946 -59.6714 274° West  Level FlightAware Approximate
12:17PM -34.4888 -59.7638 274° West  Level FlightAware Approximate
12:18PM -34.4830 -59.8562 273° West  Level FlightAware Approximate
12:19PM -34.4785 -59.9486 273° West  Level FlightAware Approximate
12:20PM -34.4739 -60.0411 273° West  Level FlightAware Approximate
12:21PM -34.4692 -60.1335 273° West  Level FlightAware Approximate
12:22PM -34.4627 -60.2258 276° West  Level FlightAware Approximate
12:23PM -34.4540 -60.3178 277° West  Level FlightAware Approximate
12:24PM -34.4452 -60.4098 277° West  Level FlightAware Approximate
12:25PM -34.4364 -60.5018 277° West  Level FlightAware Approximate
12:26PM -34.4334 -60.5941 270° West  Level FlightAware Approximate
12:27PM -34.4331 -60.6867 274° West  Level FlightAware Approximate
12:28PM -34.4278 -60.7790 274° West  Level FlightAware Approximate
12:29PM -34.4224 -60.8714 274° West  Level FlightAware Approximate
12:30PM -34.4160 -60.9788 274° West  Level FlightAware Approximate
12:31PM -34.4097 -61.0863 274° West  Level FlightAware Approximate
12:32PM -34.4034 -61.1937 274° West  Level FlightAware Approximate
12:33PM -34.3963 -61.3010 275° West  Level FlightAware Approximate
12:34PM -34.3885 -61.4083 275° West  Level FlightAware Approximate
12:35PM -34.3805 -61.5156 275° West  Level FlightAware Approximate
12:36PM -34.3725 -61.6228 275° West  Level FlightAware Approximate
12:37PM -34.3645 -61.7300 275° West  Level FlightAware Approximate
12:38PM -34.3566 -61.8372 275° West  Level FlightAware Approximate
12:39PM -34.3486 -61.9445 275° West  Level FlightAware Approximate
12:40PM -34.3405 -62.0516 275° West  Level FlightAware Approximate
12:41PM -34.3323 -62.1588 275° West  Level FlightAware Approximate
12:42PM -34.3240 -62.2659 275° West  Level FlightAware Approximate
12:43PM -34.3157 -62.3731 275° West  Level FlightAware Approximate
12:44PM -34.3072 -62.4801 275° West  Level FlightAware Approximate
12:45PM -34.2986 -62.5872 275° West  Level FlightAware Approximate
12:46PM -34.2900 -62.6943 276° West  Level FlightAware Approximate
12:47PM -34.2812 -62.8013 276° West  Level FlightAware Approximate
12:48PM -34.2724 -62.9083 276° West  Level FlightAware Approximate
12:49PM -34.2635 -63.0153 276° West  Level FlightAware Approximate
12:50PM -34.2544 -63.1223 276° West  Level FlightAware Approximate
12:51PM -34.2453 -63.2292 276° West  Level FlightAware Approximate
12:52PM -34.2361 -63.3361 276° West  Level FlightAware Approximate
12:53PM -34.2268 -63.4430 276° West  Level FlightAware Approximate
12:54PM -34.2174 -63.5499 276° West  Level FlightAware Approximate
12:55PM -34.2079 -63.6567 276° West  Level FlightAware Approximate
12:56PM -34.1984 -63.7636 276° West  Level FlightAware Approximate
12:57PM -34.1887 -63.8703 276° West  Level FlightAware Approximate
12:58PM -34.1789 -63.9771 276° West  Level FlightAware Approximate
12:59PM -34.1691 -64.0839 276° West  Level FlightAware Approximate
01:00PM -34.1591 -64.1906 276° West  Level FlightAware Approximate
01:01PM -34.1491 -64.2973 276° West  Level FlightAware Approximate
01:02PM -34.1390 -64.4040 277° West  Level FlightAware Approximate
01:03PM -34.1287 -64.5106 277° West  Level FlightAware Approximate
01:04PM -34.1184 -64.6172 277° West  Level FlightAware Approximate
01:05PM -34.1080 -64.7238 277° West  Level FlightAware Approximate
01:06PM -34.0975 -64.8304 277° West  Level FlightAware Approximate
01:07PM -34.0869 -64.9369 277° West  Level FlightAware Approximate
01:08PM -34.0762 -65.0435 277° West  Level FlightAware Approximate
01:09PM -34.0654 -65.1499 277° West  Level FlightAware Approximate
01:10PM -34.0546 -65.2564 277° West  Level FlightAware Approximate
01:11PM -34.0436 -65.3628 277° West  Level FlightAware Approximate
01:12PM -34.0326 -65.4692 277° West  Level FlightAware Approximate
01:13PM -34.0214 -65.5756 277° West  Level FlightAware Approximate
01:14PM -34.0102 -65.6820 277° West  Level FlightAware Approximate
01:15PM -33.9988 -65.7883 277° West  Level FlightAware Approximate
01:16PM -33.9874 -65.8946 277° West  Level FlightAware Approximate
01:17PM -33.9759 -66.0008 277° West  Level FlightAware Approximate
01:18PM -33.9643 -66.1071 277° West  Level FlightAware Approximate
01:19PM -33.9526 -66.2133 278° West  Level FlightAware Approximate
01:20PM -33.9408 -66.3195 278° West  Level FlightAware Approximate
01:21PM -33.9290 -66.4256 278° West  Level FlightAware Approximate
01:22PM -33.9170 -66.5317 278° West  Level FlightAware Approximate
01:23PM -33.9049 -66.6378 278° West  Level FlightAware Approximate
01:24PM -33.8928 -66.7439 278° West  Level FlightAware Approximate
01:25PM -33.8806 -66.8499 278° West  Level FlightAware Approximate
01:26PM -33.8682 -66.9559 278° West  Level FlightAware Approximate
01:27PM -33.8558 -67.0619 278° West  Level FlightAware Approximate
01:28PM -33.8433 -67.1678 278° West  Level FlightAware Approximate
01:29PM -33.8307 -67.2737 278° West  Level FlightAware Approximate
01:30PM -33.8180 -67.3796 278° West  Level FlightAware Approximate
01:31PM -33.8052 -67.4854 278° West  Level FlightAware Approximate
01:32PM -33.7923 -67.5912 278° West  Level FlightAware Approximate
01:33PM -33.7794 -67.6970 278° West  Level FlightAware Approximate
01:33PM -32.9744 -69.5606 284° West 399 459 32,600  Level FlightAware ADS-B
01:34PM -32.9476 -69.6910 284° West 394 453 30,600 -1,920 Descending FlightAware ADS-B
01:35PM -32.9130 -69.8583 284° West 385 443 28,100 -1,860 Descending FlightAware ADS-B
01:36PM -32.8963 -69.9385 284° West 380 437 26,900 -1,800 Descending FlightAware ADS-B
01:36PM -32.8848 -69.9961 280° West 369 425 26,000 -1,920 Descending FlightAware ADS-B
01:37PM -32.8784 -70.0557 276° West 359 413 25,000 -2,100 Descending FlightAware ADS-B
01:37PM -32.8722 -70.1223 276° West 353 406 23,900 -2,160 Descending FlightAware ADS-B
01:38PM -32.8656 -70.1953 276° West 345 397 22,500 -2,580 Descending FlightAware ADS-B
01:39PM -32.8604 -70.2515 276° West 340 391 20,900 -3,300 Descending FlightAware ADS-B
01:39PM -32.8534 -70.3262 277° West 337 388 18,700 -3,300 Descending FlightAware ADS-B
01:40PM -32.8488 -70.3751 276° West 336 387 17,100 -2,580 Descending FlightAware ADS-B
01:40PM -32.8415 -70.4522 277° West 338 389 15,800 -1,920 Descending FlightAware ADS-B
01:41PM -32.8363 -70.5083 276° West 330 380 14,900 -2,160 Descending FlightAware ADS-B
01:42PM -32.8300 -70.5747 277° West 318 366 13,200 -2,340 Descending FlightAware ADS-B
01:42PM -32.8240 -70.6371 276° West 298 343 11,900 -1,980 Descending FlightAware ADS-B
01:43PM -32.8206 -70.6757 266° West 293 337 11,200 -1,860 Descending FlightAware ADS-B
01:43PM -32.8237 -70.6972 249° West 298 343 10,900 -2,400 Descending FlightAware ADS-B
01:43PM -32.8312 -70.7127 233° Southwest 309 356 10,400 -3,840 Descending FlightAware ADS-B
01:43PM -32.8401 -70.7239 223° Southwest 327 376 9,700 -2,220 Descending FlightAware ADS-B
01:43PM -32.8643 -70.7495 222° Southwest 310 357 9,300 -1,320 Descending FlightAware ADS-B
01:44PM -32.8840 -70.7709 223° Southwest 299 344 8,800 -1,200 Descending FlightAware ADS-B
01:44PM -32.9046 -70.7937 223° Southwest 289 333 8,500 -480 Descending FlightAware ADS-B
01:44PM -32.9262 -70.8089 193° South 304 350 8,500 -420 Level FlightAware ADS-B
01:45PM -32.9392 -70.8108 181° South 310 357 8,300 -780 Descending FlightAware ADS-B
01:45PM -32.9704 -70.8086 175° South 300 345 8,100 -900 Descending FlightAware ADS-B
01:45PM -32.9978 -70.8062 177° South 296 341 7,700 -900 Descending FlightAware ADS-B
01:46PM -33.0167 -70.8050 177° South 284 327 7,500 -660 Descending FlightAware ADS-B
01:46PM -33.0486 -70.8033 178° South 273 314 7,300 -1,440 Descending FlightAware ADS-B
01:46PM -33.0719 -70.8023 179° South 271 312 6,600 -2,340 Descending FlightAware ADS-B
01:47PM -33.1015 -70.8018 180° South 282 325 5,700 -2,160 Descending FlightAware ADS-B
01:47PM -33.1253 -70.8006 176° South 277 319 5,100 -1,200 Descending FlightAware ADS-B
01:47PM -33.1516 -70.7987 177° South 251 289 4,900 -300 Descending FlightAware ADS-B
01:48PM -33.1735 -70.7975 178° South 223 257 4,900  Level FlightAware ADS-B
01:48PM -33.1933 -70.7966 178° South 205 236 4,900 -300 Level FlightAware ADS-B
01:48PM -33.2123 -70.7956 178° South 192 221 4,700 -900 Descending FlightAware ADS-B
01:49PM -33.2289 -70.7947 177° South 189 217 4,300 -1,200 Descending FlightAware ADS-B
01:49PM -33.2478 -70.7936 178° South 189 217 3,900 -1,080 Descending FlightAware ADS-B
01:49PM -33.2653 -70.7927 178° South 182 209 3,600 -900 Descending FlightAware ADS-B
01:50PM -33.2805 -70.7919 178° South 165 190 3,300 -960 Descending FlightAware ADS-B
01:50PM -33.2957 -70.7910 177° South 151 174 3,000 -780 Descending FlightAware ADS-B
01:50PM -33.3093 -70.7903 178° South 141 162 2,800 -780 Descending FlightAware ADS-B
01:51PM -33.3207 -70.7897 178° South 141 162 2,500 -780 Descending FlightAware ADS-B
01:51PM -33.3347 -70.7890 178° South 138 159 2,300 -840 Descending FlightAware ADS-B
01:51PM -33.3442 -70.7884 178° South 139 160 2,000 -780 Descending FlightAware ADS-B
01:52PM -33.3606 -70.7876 178° South 139 160 1,800 -600 Descending FlightAware ADS-B
01:54PM -33.3833 -70.7667 270° West  Level FlightAware Approximate